createdAt,value
2018-09-02T00:00:08.851Z,24.20
2018-09-02T00:02:39.235Z,20.13
2018-09-02T00:05:08.267Z,19.77
2018-09-02T00:07:37.142Z,20.13
2018-09-02T00:10:07.122Z,19.50
2018-09-02T00:12:36.088Z,19.43
2018-09-02T00:15:05.180Z,20.63
2018-09-02T00:17:34.587Z,22.77
2018-09-02T00:20:03.464Z,18.70
2018-09-02T00:22:33.556Z,21.73
2018-09-02T00:25:02.894Z,18.70
2018-09-02T00:27:31.937Z,17.73
2018-09-02T00:30:00.861Z,22.50
2018-09-02T00:32:30.071Z,22.53
2018-09-02T00:34:59.143Z,24.53
2018-09-02T00:37:28.184Z,20.93
2018-09-02T00:39:57.212Z,25.67
2018-09-02T00:42:26.229Z,25.03
2018-09-02T00:44:55.411Z,19.87
2018-09-02T00:47:24.769Z,19.13
2018-09-02T00:49:53.855Z,20.73
2018-09-02T00:52:22.800Z,21.67
2018-09-02T00:54:52.226Z,20.07
2018-09-02T00:57:21.228Z,20.07
2018-09-02T00:59:50.407Z,17.53
2018-09-02T01:02:19.476Z,23.77
2018-09-02T01:04:48.455Z,21.20
2018-09-02T01:07:17.671Z,22.10
2018-09-02T01:09:46.562Z,25.43
2018-09-02T01:12:15.454Z,19.00
2018-09-02T01:14:44.374Z,17.90
2018-09-02T01:17:13.867Z,17.57
2018-09-02T01:19:42.808Z,18.23
2018-09-02T01:22:12.119Z,18.67
2018-09-02T01:24:41.305Z,18.63
2018-09-02T01:27:10.309Z,17.10
2018-09-02T01:29:39.365Z,19.83
2018-09-02T01:32:08.600Z,16.53
2018-09-02T01:34:37.684Z,17.97
2018-09-02T01:37:06.765Z,16.33
2018-09-02T01:39:35.723Z,18.73
2018-09-02T01:42:04.677Z,19.23
2018-09-02T01:44:33.763Z,20.87
2018-09-02T01:47:03.100Z,17.77
2018-09-02T01:49:32.159Z,18.00
2018-09-02T01:52:01.169Z,18.70
2018-09-02T01:54:30.081Z,20.03
2018-09-02T01:56:58.985Z,17.00
2018-09-02T01:59:28.013Z,20.83
2018-09-02T02:01:57.194Z,16.30
2018-09-02T02:04:29.387Z,17.33
2018-09-02T02:06:58.436Z,17.67
2018-09-02T02:09:27.519Z,16.37
2018-09-02T02:11:56.621Z,14.00
2018-09-02T02:14:27.088Z,19.07
2018-09-02T02:16:55.927Z,18.77
2018-09-02T02:19:24.923Z,18.23
2018-09-02T02:21:54.347Z,19.00
2018-09-02T02:24:23.283Z,16.70
2018-09-02T02:26:52.094Z,17.10
2018-09-02T02:29:21.433Z,14.83
2018-09-02T02:31:50.616Z,18.23
2018-09-02T02:34:19.761Z,19.20
2018-09-02T02:36:49.057Z,15.97
2018-09-02T02:39:18.224Z,18.50
2018-09-02T02:41:47.156Z,17.23
2018-09-02T02:44:16.278Z,15.47
2018-09-02T02:46:45.358Z,18.47
2018-09-02T02:49:14.413Z,18.47
2018-09-02T02:51:43.787Z,18.57
2018-09-02T02:54:12.807Z,19.10
2018-09-02T02:56:41.797Z,17.93
2018-09-02T02:59:11.161Z,16.97
2018-09-02T03:01:40.143Z,19.07
2018-09-02T03:04:09.210Z,18.43
2018-09-02T03:06:38.550Z,16.57
2018-09-02T03:09:09.308Z,18.47
2018-09-02T03:11:38.628Z,20.30
2018-09-02T03:14:09.361Z,19.33
2018-09-02T03:16:38.716Z,17.60
2018-09-02T03:19:08.027Z,18.33
2018-09-02T03:21:37.004Z,20.90
2018-09-02T03:24:07.715Z,15.30
2018-09-02T03:26:37.824Z,21.20
2018-09-02T03:29:08.274Z,16.27
2018-09-02T03:31:37.263Z,18.63
2018-09-02T03:34:06.245Z,17.87
2018-09-02T03:36:35.555Z,18.13
2018-09-02T03:39:05.360Z,19.03
2018-09-02T03:41:34.408Z,16.70
2018-09-02T03:44:03.830Z,20.03
2018-09-02T03:46:32.736Z,16.30
2018-09-02T03:49:01.683Z,15.53
2018-09-02T03:51:30.725Z,17.47
2018-09-02T03:53:59.661Z,14.83
2018-09-02T03:56:28.624Z,16.60
2018-09-02T03:58:57.725Z,16.90
2018-09-02T04:01:26.722Z,15.53
2018-09-02T04:03:55.582Z,20.03
2018-09-02T04:06:24.760Z,24.77
2018-09-02T04:08:53.913Z,15.67
2018-09-02T04:11:22.808Z,17.87
2018-09-02T04:13:52.548Z,16.47
2018-09-02T04:16:21.525Z,14.43
2018-09-02T04:18:50.496Z,15.13
2018-09-02T04:21:19.706Z,16.40
2018-09-02T04:23:48.694Z,15.47
2018-09-02T04:26:17.565Z,17.17
2018-09-02T04:28:46.891Z,16.23
2018-09-02T04:31:15.856Z,16.97
2018-09-02T04:33:44.976Z,16.20
2018-09-02T04:36:14.403Z,17.37
2018-09-02T04:38:43.323Z,17.17
2018-09-02T04:41:12.367Z,20.13
2018-09-02T04:43:41.482Z,18.07
2018-09-02T04:46:10.347Z,22.23
2018-09-02T04:48:39.205Z,18.23
2018-09-02T04:51:08.610Z,20.17
2018-09-02T04:53:37.753Z,22.07
2018-09-02T04:56:07.753Z,17.97
2018-09-02T04:58:37.035Z,16.10
2018-09-02T05:01:06.048Z,20.37
2018-09-02T05:03:35.042Z,16.47
2018-09-02T05:06:04.299Z,19.63
2018-09-02T05:08:33.305Z,17.50
2018-09-02T05:11:02.353Z,18.67
2018-09-02T05:13:31.998Z,20.37
2018-09-02T05:16:01.024Z,14.60
2018-09-02T05:18:30.069Z,16.33
2018-09-02T05:20:59.289Z,16.17
2018-09-02T05:23:28.174Z,25.50
2018-09-02T05:25:57.235Z,16.80
2018-09-02T05:28:26.760Z,20.00
2018-09-02T05:30:55.724Z,17.67
2018-09-02T05:33:24.714Z,16.20
2018-09-02T05:35:53.824Z,15.80
2018-09-02T05:38:22.800Z,17.03
2018-09-02T05:40:51.937Z,20.30
2018-09-02T05:43:21.354Z,21.47
2018-09-02T05:45:50.306Z,21.87
2018-09-02T05:48:19.280Z,26.50
2018-09-02T05:50:48.268Z,25.20
2018-09-02T05:53:17.349Z,20.13
2018-09-02T05:55:46.379Z,18.40
2018-09-02T05:58:15.375Z,17.60
2018-09-02T06:00:44.416Z,16.80
2018-09-02T06:03:13.201Z,17.60
2018-09-02T06:05:42.304Z,16.80
2018-09-02T06:08:11.247Z,18.53
2018-09-02T06:10:40.200Z,31.07
2018-09-02T06:13:09.240Z,47.03
2018-09-02T06:15:38.081Z,69.17
2018-09-02T06:18:07.045Z,56.88
2018-09-02T06:20:36.649Z,37.53
2018-09-02T06:23:05.731Z,34.37
2018-09-02T06:25:34.669Z,25.00
2018-09-02T06:28:04.182Z,25.85
2018-09-02T06:30:33.211Z,23.92
2018-09-02T06:33:02.473Z,18.90
2018-09-02T06:35:31.872Z,21.77
2018-09-02T06:38:00.688Z,20.80
2018-09-02T06:40:29.753Z,20.72
2018-09-02T06:42:58.869Z,20.27
2018-09-02T06:45:27.904Z,20.97
2018-09-02T06:47:56.988Z,15.83
2018-09-02T06:50:26.173Z,19.82
2018-09-02T06:52:55.035Z,20.27
2018-09-02T06:55:23.953Z,18.42
2018-09-02T06:57:53.494Z,20.27
2018-09-02T07:00:22.306Z,17.85
2018-09-02T07:02:51.813Z,20.85
2018-09-02T07:05:20.812Z,22.48
2018-09-02T07:07:50.033Z,19.23
2018-09-02T07:10:19.040Z,17.55
2018-09-02T07:12:48.101Z,14.70
2018-09-02T07:15:17.962Z,20.68
2018-09-02T07:17:46.932Z,17.95
2018-09-02T07:20:15.917Z,19.30
2018-09-02T07:22:44.961Z,17.87
2018-09-02T07:25:13.767Z,20.60
2018-09-02T07:27:42.711Z,22.10
2018-09-02T07:30:11.512Z,16.82
2018-09-02T07:32:40.273Z,21.02
2018-09-02T07:35:09.690Z,15.78
2018-09-02T07:37:38.623Z,20.68
2018-09-02T07:40:07.447Z,17.70
2018-09-02T07:42:36.822Z,16.85
2018-09-02T07:45:05.793Z,15.38
2018-09-02T07:47:34.605Z,18.07
2018-09-02T07:50:03.829Z,17.07
2018-09-02T07:52:32.747Z,16.57
2018-09-02T07:55:01.766Z,13.80
2018-09-02T07:57:30.896Z,18.23
2018-09-02T07:59:59.678Z,15.38
2018-09-02T08:02:28.535Z,15.43
2018-09-02T08:04:57.791Z,16.50
2018-09-02T08:07:26.712Z,14.83
2018-09-02T08:09:55.533Z,16.85
2018-09-02T08:12:24.514Z,15.53
2018-09-02T08:14:53.267Z,17.92
2018-09-02T08:17:22.090Z,17.75
2018-09-02T08:19:51.333Z,15.83
2018-09-02T08:22:20.217Z,15.83
2018-09-02T08:24:49.185Z,15.98
2018-09-02T08:27:18.407Z,15.30
2018-09-02T08:29:47.346Z,16.42
2018-09-02T08:32:16.088Z,18.98
2018-09-02T08:34:45.028Z,14.45
2018-09-02T08:37:13.955Z,14.00
2018-09-02T08:39:42.781Z,18.45
2018-09-02T08:42:11.768Z,19.12
2018-09-02T08:44:40.618Z,16.65
2018-09-02T08:47:09.484Z,17.85
2018-09-02T08:49:38.348Z,15.68
2018-09-02T08:52:07.933Z,20.82
2018-09-02T08:54:36.684Z,15.68
2018-09-02T08:57:05.739Z,17.87
2018-09-02T08:59:34.651Z,16.30
2018-09-02T09:02:03.542Z,15.85
2018-09-02T09:04:32.918Z,14.25
2018-09-02T09:07:01.795Z,16.60
2018-09-02T09:09:30.740Z,27.67
2018-09-02T09:12:00.201Z,21.12
2018-09-02T09:14:29.036Z,22.30
2018-09-02T09:16:58.030Z,20.20
2018-09-02T09:19:27.000Z,16.40
2018-09-02T09:21:55.867Z,10.93
2018-09-02T09:24:24.683Z,14.55
2018-09-02T09:26:54.025Z,16.67
2018-09-02T09:29:22.897Z,15.20
2018-09-02T09:31:51.789Z,13.62
2018-09-02T09:34:21.229Z,13.98
2018-09-02T09:36:50.252Z,11.88
2018-09-02T09:39:18.998Z,17.60
2018-09-02T09:41:47.918Z,16.40
2018-09-02T09:44:16.715Z,10.72
2018-09-02T09:46:45.540Z,14.45
2018-09-02T09:49:14.527Z,11.25
2018-09-02T09:51:43.596Z,16.45
2018-09-02T09:54:12.419Z,9.58
2018-09-02T09:56:41.225Z,13.08
2018-09-02T09:59:10.177Z,13.88
2018-09-02T10:01:38.993Z,14.53
2018-09-02T10:04:08.139Z,14.20
2018-09-02T10:06:36.982Z,19.45
2018-09-02T10:09:09.958Z,9.33
2018-09-02T10:11:38.769Z,16.45
2018-09-02T10:14:07.600Z,9.33
2018-09-02T10:16:37.049Z,9.05
2018-09-02T10:19:06.165Z,13.43
2018-09-02T10:21:35.280Z,15.58
2018-09-02T10:24:04.708Z,11.90
2018-09-02T10:26:33.562Z,16.17
2018-09-02T10:29:02.332Z,13.50
2018-09-02T10:31:31.118Z,11.40
2018-09-02T10:33:59.995Z,11.70
2018-09-02T10:36:29.053Z,12.53
2018-09-02T10:38:58.464Z,9.65
2018-09-02T10:41:27.385Z,13.95
2018-09-02T10:43:56.279Z,11.05
2018-09-02T10:46:25.525Z,8.98
2018-09-02T10:48:54.321Z,9.60
2018-09-02T10:51:23.265Z,16.70
2018-09-02T10:53:52.185Z,10.50
2018-09-02T10:56:20.923Z,11.10
2018-09-02T10:58:49.761Z,11.45
2018-09-02T11:01:18.767Z,16.00
2018-09-02T11:03:47.605Z,12.47
2018-09-02T11:06:16.391Z,10.60
2018-09-02T11:08:45.804Z,16.62
2018-09-02T11:11:14.639Z,15.60
2018-09-02T11:13:43.651Z,12.95
2018-09-02T11:16:12.783Z,14.18
2018-09-02T11:18:41.753Z,14.87
2018-09-02T11:21:10.704Z,14.83
2018-09-02T11:23:39.662Z,14.93
2018-09-02T11:26:08.441Z,14.95
2018-09-02T11:28:37.335Z,17.37
2018-09-02T11:31:06.223Z,12.15
2018-09-02T11:33:35.200Z,10.88
2018-09-02T11:36:05.440Z,13.80
2018-09-02T11:38:34.645Z,12.70
2018-09-02T11:41:03.445Z,13.98
2018-09-02T11:43:32.312Z,14.93
2018-09-02T11:46:01.272Z,13.00
2018-09-02T11:48:30.223Z,8.88
2018-09-02T11:50:59.058Z,14.03
2018-09-02T11:53:28.379Z,13.70
2018-09-02T11:55:57.368Z,12.00
2018-09-02T11:58:26.299Z,11.20
2018-09-02T12:00:55.203Z,10.05
2018-09-02T12:03:24.017Z,14.95
2018-09-02T12:05:52.942Z,13.03
2018-09-02T12:08:22.136Z,9.58
2018-09-02T12:10:50.985Z,21.80
2018-09-02T12:13:19.958Z,22.95
2018-09-02T12:15:48.840Z,16.32
2018-09-02T12:18:17.699Z,16.32
2018-09-02T12:20:46.582Z,12.73
2018-09-02T12:23:16.010Z,11.40
2018-09-02T12:25:44.993Z,16.27
2018-09-02T12:28:13.921Z,16.02
2018-09-02T12:30:42.802Z,19.52
2018-09-02T12:33:11.710Z,12.15
2018-09-02T12:35:40.632Z,16.25
2018-09-02T12:38:09.566Z,14.73
2018-09-02T12:40:38.423Z,12.47
2018-09-02T12:43:07.273Z,11.80
2018-09-02T12:45:36.405Z,17.02
2018-09-02T12:48:05.307Z,18.60
2018-09-02T12:50:34.076Z,18.40
2018-09-02T12:53:03.073Z,13.25
2018-09-02T12:55:32.110Z,12.70
2018-09-02T12:58:00.997Z,14.78
2018-09-02T13:00:30.069Z,16.02
2018-09-02T13:02:58.900Z,13.45
2018-09-02T13:05:27.669Z,15.23
2018-09-02T13:07:56.859Z,12.18
2018-09-02T13:10:25.730Z,14.80
2018-09-02T13:12:54.610Z,12.90
2018-09-02T13:15:24.022Z,10.43
2018-09-02T13:17:52.940Z,11.75
2018-09-02T13:20:21.849Z,12.85
2018-09-02T13:22:50.824Z,13.80
2018-09-02T13:25:19.665Z,13.45
2018-09-02T13:27:48.583Z,14.43
2018-09-02T13:30:17.419Z,12.65
2018-09-02T13:39:31.249Z,15.25
2018-09-02T13:42:00.168Z,14.35
2018-09-02T13:44:29.005Z,11.97
2018-09-02T13:46:58.450Z,15.13
2018-09-02T13:49:27.468Z,11.48
2018-09-02T13:51:56.615Z,12.13
2018-09-02T13:54:25.600Z,11.30
2018-09-02T13:56:54.842Z,14.38
2018-09-02T13:59:23.679Z,15.55
2018-09-02T14:01:52.933Z,13.68
2018-09-02T14:04:21.971Z,13.35
2018-09-02T14:06:50.937Z,12.35
2018-09-02T14:09:19.988Z,12.75
2018-09-02T14:11:48.841Z,14.20
2018-09-02T14:14:17.859Z,10.38
2018-09-02T14:16:47.083Z,11.43
2018-09-02T14:19:16.282Z,15.32
2018-09-02T14:21:45.330Z,13.70
2018-09-02T14:24:14.710Z,12.03
2018-09-02T14:26:43.933Z,11.60
2018-09-02T14:29:12.991Z,9.13
2018-09-02T14:31:42.992Z,9.20
2018-09-02T14:34:11.904Z,13.68
2018-09-02T14:36:42.016Z,15.15
2018-09-02T14:39:13.020Z,13.28
2018-09-02T14:41:42.501Z,13.48
2018-09-02T14:44:11.336Z,12.28
2018-09-02T14:46:41.902Z,9.70
2018-09-02T14:49:10.844Z,14.18
2018-09-02T14:51:40.173Z,21.80
2018-09-02T14:54:09.195Z,9.85
2018-09-02T14:56:38.290Z,10.95
2018-09-02T14:59:07.157Z,11.25
2018-09-02T15:01:36.107Z,11.48
2018-09-02T15:04:07.687Z,14.90
2018-09-02T15:06:37.295Z,10.13
2018-09-02T15:09:08.309Z,19.10
2018-09-02T15:11:37.937Z,14.98
2018-09-02T15:14:06.997Z,11.45
2018-09-02T15:16:36.626Z,16.80
2018-09-02T15:19:06.464Z,11.75
2018-09-02T15:21:37.433Z,10.08
2018-09-02T15:24:06.602Z,12.10
2018-09-02T15:26:35.765Z,11.43
2018-09-02T15:29:06.301Z,16.05
2018-09-02T15:31:35.218Z,25.05
2018-09-02T15:34:04.305Z,17.73
2018-09-02T15:36:33.346Z,17.98
2018-09-02T15:39:02.404Z,18.25
2018-09-02T15:41:31.432Z,16.65
2018-09-02T15:44:00.639Z,19.80
2018-09-02T15:46:29.601Z,19.02
2018-09-02T15:48:59.476Z,16.93
2018-09-02T15:51:34.911Z,12.70
2018-09-02T15:54:07.563Z,11.70
2018-09-02T15:56:36.655Z,19.42
2018-09-02T15:59:14.494Z,12.50
2018-09-02T16:01:43.675Z,17.67
2018-09-02T16:04:13.496Z,22.40
2018-09-02T16:06:42.629Z,15.65
2018-09-02T16:09:17.993Z,16.10
2018-09-02T16:11:47.141Z,12.73
2018-09-02T16:14:16.445Z,19.32
2018-09-02T16:16:45.528Z,17.62
2018-09-02T16:19:14.426Z,17.35
2018-09-02T16:21:43.466Z,28.45
2018-09-02T16:24:12.512Z,10.65
2018-09-02T16:26:41.741Z,22.70
2018-09-02T16:29:11.927Z,21.27
2018-09-02T16:31:41.050Z,17.12
2018-09-02T16:34:10.049Z,16.87
2018-09-02T16:36:40.118Z,17.65
2018-09-02T16:39:10.429Z,18.02
2018-09-02T16:41:40.761Z,22.95
2018-09-02T16:44:10.147Z,16.82
2018-09-02T16:46:42.543Z,14.43
2018-09-02T16:49:17.225Z,17.45
2018-09-02T16:51:52.186Z,19.52
2018-09-02T16:54:21.158Z,19.87
2018-09-02T16:56:50.123Z,15.20
2018-09-02T16:59:19.331Z,19.57
2018-09-02T17:01:48.276Z,13.98
2018-09-02T17:04:17.465Z,17.12
2018-09-02T17:06:46.769Z,24.02
2018-09-02T17:09:15.651Z,33.55
2018-09-02T17:11:44.627Z,19.42
2018-09-02T17:14:15.045Z,14.63
2018-09-02T17:16:44.037Z,19.75
2018-09-02T17:19:21.126Z,16.55
2018-09-02T17:21:50.017Z,17.27
2018-09-02T17:24:18.838Z,19.10
2018-09-02T17:26:47.662Z,21.55
2018-09-02T17:29:16.362Z,13.08
2018-09-02T17:31:45.170Z,13.08
2018-09-02T17:34:14.431Z,14.70
2018-09-02T17:36:43.530Z,15.18
2018-09-02T17:39:14.600Z,19.77
2018-09-02T17:41:43.862Z,18.85
2018-09-02T17:44:12.689Z,18.42
2018-09-02T17:46:41.627Z,20.08
2018-09-02T17:49:10.407Z,18.65
2018-09-02T17:51:39.187Z,12.88
2018-09-02T17:54:11.460Z,21.35
2018-09-02T17:56:40.451Z,20.35
2018-09-02T17:59:09.477Z,19.37
2018-09-02T18:01:39.089Z,21.93
2018-09-02T18:04:09.125Z,22.98
2018-09-02T18:06:38.208Z,25.45
2018-09-02T18:09:09.790Z,28.07
2018-09-02T18:11:39.375Z,16.35
2018-09-02T18:14:08.698Z,26.62
2018-09-02T18:16:37.930Z,23.25
2018-09-02T18:19:07.509Z,24.32
2018-09-02T18:21:36.382Z,26.73
2018-09-02T18:24:05.433Z,29.50
2018-09-02T18:26:36.386Z,19.42
2018-09-02T18:29:05.660Z,22.02
2018-09-02T18:31:34.664Z,19.77
2018-09-02T18:34:04.292Z,24.40
2018-09-02T18:36:33.357Z,20.75
2018-09-02T18:39:02.287Z,21.37
2018-09-02T18:41:31.227Z,25.92
2018-09-02T18:44:00.277Z,20.82
2018-09-02T18:46:29.278Z,23.22
2018-09-02T18:48:58.479Z,22.65
2018-09-02T18:51:27.441Z,19.30
2018-09-02T18:53:56.541Z,19.05
2018-09-02T18:56:25.907Z,15.13
2018-09-02T18:58:54.829Z,20.80
2018-09-02T19:01:24.057Z,19.92
2018-09-02T19:03:53.081Z,14.68
2018-09-02T19:06:22.038Z,21.00
2018-09-02T19:08:51.113Z,17.65
2018-09-02T19:11:20.512Z,16.30
2018-09-02T19:13:49.421Z,20.72
2018-09-02T19:16:18.566Z,24.32
2018-09-02T19:18:48.139Z,16.62
2018-09-02T19:21:17.094Z,17.30
2018-09-02T19:23:46.029Z,18.95
2018-09-02T19:26:15.430Z,13.38
2018-09-02T19:28:44.393Z,19.35
2018-09-02T19:31:13.480Z,26.15
2018-09-02T19:33:42.618Z,18.45
2018-09-02T19:36:11.748Z,14.73
2018-09-02T19:38:40.865Z,15.78
2018-09-02T19:41:12.001Z,20.90
2018-09-02T19:43:40.974Z,19.35
2018-09-02T19:46:11.408Z,17.80
2018-09-02T19:48:40.756Z,21.97
2018-09-02T19:51:09.671Z,21.10
2018-09-02T19:53:38.841Z,15.58
2018-09-02T19:56:07.956Z,23.75
2018-09-02T19:58:37.175Z,21.45
2018-09-02T20:01:06.314Z,24.37
2018-09-02T20:03:36.305Z,18.82
2018-09-02T20:06:05.181Z,22.15
2018-09-02T20:08:34.112Z,24.92
2018-09-02T20:11:03.303Z,22.70
2018-09-02T20:13:32.364Z,28.32
2018-09-02T20:16:01.523Z,16.52
2018-09-02T20:18:30.940Z,22.07
2018-09-02T20:20:59.971Z,28.02
2018-09-02T20:23:28.845Z,20.52
2018-09-02T20:25:57.799Z,25.40
2018-09-02T20:28:26.804Z,23.62
2018-09-02T20:30:55.753Z,18.00
2018-09-02T20:33:24.797Z,17.35
2018-09-02T20:35:56.487Z,22.00
2018-09-02T20:38:25.402Z,18.55
2018-09-02T20:40:54.772Z,19.40
2018-09-02T20:43:23.792Z,21.33
2018-09-02T20:48:45.084Z,24.20
2018-09-02T20:51:14.170Z,20.82
2018-09-02T20:53:42.959Z,15.90
2018-09-02T20:56:15.853Z,22.40
2018-09-02T20:58:44.866Z,15.32
2018-09-02T21:01:14.363Z,19.60
2018-09-02T21:03:44.073Z,20.90
2018-09-02T21:06:14.554Z,22.90
2018-09-02T21:10:12.948Z,20.02
2018-09-02T21:12:41.734Z,14.68
2018-09-02T21:15:10.724Z,18.27
2018-09-02T21:17:39.681Z,20.60
2018-09-02T21:20:08.733Z,25.35
2018-09-02T21:22:37.689Z,18.52
2018-09-02T21:25:07.729Z,23.60
2018-09-02T21:27:42.966Z,16.27
2018-09-02T21:30:12.375Z,16.25
2018-09-02T21:32:41.445Z,23.27
2018-09-02T21:35:10.784Z,22.37
2018-09-02T21:37:39.719Z,15.75
2018-09-02T21:40:08.818Z,17.73
2018-09-02T21:42:37.735Z,16.45
2018-09-02T21:45:07.026Z,19.77
2018-09-02T21:47:35.929Z,19.30
2018-09-02T21:50:05.574Z,16.42
2018-09-02T21:52:34.987Z,19.62
2018-09-02T21:55:04.045Z,19.70
2018-09-02T21:57:34.875Z,19.05
2018-09-02T22:00:04.312Z,19.57
2018-09-02T22:02:33.464Z,19.87
2018-09-02T22:05:02.479Z,17.15
2018-09-02T22:07:31.569Z,16.73
2018-09-02T22:10:01.449Z,22.30
2018-09-02T22:12:30.458Z,14.05
2018-09-02T22:14:59.450Z,19.07
2018-09-02T22:17:28.374Z,20.82
2018-09-02T22:19:57.768Z,21.68
2018-09-02T22:22:26.822Z,16.52
2018-09-02T22:24:55.828Z,20.90
2018-09-02T22:27:25.096Z,16.52
2018-09-02T22:29:54.105Z,19.85
2018-09-02T22:32:23.056Z,15.85
2018-09-02T22:34:52.161Z,19.10
2018-09-02T22:37:21.314Z,18.90
2018-09-02T22:39:50.385Z,19.92
2018-09-02T22:42:19.423Z,19.52
2018-09-02T22:44:48.305Z,13.95
2018-09-02T22:47:17.115Z,17.17
2018-09-02T22:49:46.290Z,17.60
2018-09-02T22:52:17.299Z,15.85
2018-09-02T22:54:46.823Z,16.80
2018-09-02T22:57:16.621Z,19.12
2018-09-02T22:59:46.997Z,13.05
2018-09-02T23:02:16.334Z,15.25
2018-09-02T23:04:46.454Z,18.02
2018-09-02T23:07:16.109Z,16.70
2018-09-02T23:09:45.375Z,19.07
2018-09-02T23:12:14.576Z,18.37
2018-09-02T23:14:43.936Z,20.95
2018-09-02T23:17:12.953Z,18.55
2018-09-02T23:19:41.916Z,23.90
2018-09-02T23:22:10.957Z,27.30
2018-09-02T23:24:39.951Z,24.18
2018-09-02T23:28:38.804Z,23.32
2018-09-02T23:31:08.013Z,18.60
2018-09-02T23:33:37.148Z,21.62
2018-09-02T23:36:06.255Z,26.40
2018-09-02T23:38:35.129Z,18.87
2018-09-02T23:41:04.000Z,25.00
2018-09-02T23:43:32.971Z,20.07
2018-09-02T23:46:02.331Z,19.90
2018-09-02T23:48:32.285Z,17.65
2018-09-02T23:51:01.849Z,17.50
2018-09-02T23:53:31.813Z,20.73
2018-09-02T23:56:00.874Z,20.03
2018-09-02T23:58:30.071Z,18.10
